Peixoto de Azevedo, Brazil
Current Conditions -  °F | °C
As of 9:00 AM on Friday 24 Oct 2014 (Local Time) from SBAT Reporting Station
Clear Clear  
Wind Chill: 79°   Ceiling: Unl
Heat Index: 82°   Visibility: 6mi
Dew Point: 73°   Wind: 1mph
Humidity: 83%   Direction: 80°E
Pressure: 29.97"   Gusts: NA
Location:  10.22°S, 54.98°W
Report Text: SBAT 241200Z 08001KT CAVOK 26/23 Q1015
Loading
Personal Weather Stations






























Interactive Weather Map
Tropical Storm Tracking
New forecast layout! Learn more

10-Day Weather Forecast

Advertisements
Track Severe Weather on mobile